sensor_id;sensor_type;location;lat;lon;timestamp;pressure;altitude;pressure_sealevel;temperature;humidity
41230;BME280;26964;50.428;19.218;2023-11-19T00:00:53;1024.3;;;0.6;81.0
41230;BME280;26964;50.428;19.218;2023-11-19T00:01:54;1024.3;;;0.6;81.1
41230;BME280;26964;50.428;19.218;2023-11-19T00:02:53;1024.3;;;0.6;81.0
41230;BME280;26964;50.428;19.218;2023-11-19T00:03:53;1024.3;;;0.6;81.0
41230;BME280;26964;50.428;19.218;2023-11-19T00:04:53;1024.2;;;0.6;81.0
41230;BME280;26964;50.428;19.218;2023-11-19T00:05:54;1024.3;;;0.6;81.1
41230;BME280;26964;50.428;19.218;2023-11-19T00:06:53;1024.2;;;0.6;81.1
41230;BME280;26964;50.428;19.218;2023-11-19T00:08:01;1024.3;;;0.6;81.1
41230;BME280;26964;50.428;19.218;2023-11-19T00:08:54;1024.2;;;0.6;81.1
41230;BME280;26964;50.428;19.218;2023-11-19T00:09:54;1024.3;;;0.6;81.1
41230;BME280;26964;50.428;19.218;2023-11-19T00:10:53;1024.3;;;0.6;81.1
41230;BME280;26964;50.428;19.218;2023-11-19T00:11:54;1024.3;;;0.6;81.0
41230;BME280;26964;50.428;19.218;2023-11-19T00:12:54;1024.3;;;0.6;81.0
41230;BME280;26964;50.428;19.218;2023-11-19T00:13:54;1024.3;;;0.6;81.0
41230;BME280;26964;50.428;19.218;2023-11-19T00:14:54;1024.2;;;0.6;81.0
41230;BME280;26964;50.428;19.218;2023-11-19T00:15:53;1024.3;;;0.6;81.0
41230;BME280;26964;50.428;19.218;2023-11-19T00:16:53;1024.2;;;0.6;81.0
41230;BME280;26964;50.428;19.218;2023-11-19T00:17:53;1024.2;;;0.6;81.0
41230;BME280;26964;50.428;19.218;2023-11-19T00:18:53;1024.2;;;0.6;81.0
41230;BME280;26964;50.428;19.218;2023-11-19T00:19:54;1024.2;;;0.6;81.1
41230;BME280;26964;50.428;19.218;2023-11-19T00:20:56;1024.2;;;0.6;81.1
41230;BME280;26964;50.428;19.218;2023-11-19T00:21:53;1024.1;;;0.6;81.1
41230;BME280;26964;50.428;19.218;2023-11-19T00:22:54;1024.1;;;0.6;81.1
41230;BME280;26964;50.428;19.218;2023-11-19T00:23:54;1024.2;;;0.6;81.1
41230;BME280;26964;50.428;19.218;2023-11-19T00:24:54;1024.1;;;0.6;81.1
41230;BME280;26964;50.428;19.218;2023-11-19T00:25:54;1024.2;;;0.6;81.1
41230;BME280;26964;50.428;19.218;2023-11-19T00:26:53;1024.1;;;0.6;81.1
41230;BME280;26964;50.428;19.218;2023-11-19T00:27:54;1024.1;;;0.7;81.1
41230;BME280;26964;50.428;19.218;2023-11-19T00:28:53;1024.0;;;0.7;81.1
41230;BME280;26964;50.428;19.218;2023-11-19T00:29:53;1023.9;;;0.6;81.0
41230;BME280;26964;50.428;19.218;2023-11-19T00:30:54;1024.0;;;0.6;81.0
41230;BME280;26964;50.428;19.218;2023-11-19T00:31:54;1023.9;;;0.6;80.9
41230;BME280;26964;50.428;19.218;2023-11-19T00:32:57;1024.0;;;0.6;80.9
41230;BME280;26964;50.428;19.218;2023-11-19T00:33:53;1023.9;;;0.6;80.9
41230;BME280;26964;50.428;19.218;2023-11-19T00:34:54;1023.9;;;0.6;80.9
41230;BME280;26964;50.428;19.218;2023-11-19T00:35:54;1024.0;;;0.6;80.9
41230;BME280;26964;50.428;19.218;2023-11-19T00:36:54;1023.9;;;0.6;80.9
41230;BME280;26964;50.428;19.218;2023-11-19T00:37:54;1024.0;;;0.6;81.0
41230;BME280;26964;50.428;19.218;2023-11-19T00:38:55;1023.9;;;0.6;81.0
41230;BME280;26964;50.428;19.218;2023-11-19T00:39:53;1024.0;;;0.6;81.0
41230;BME280;26964;50.428;19.218;2023-11-19T00:40:53;1024.0;;;0.6;81.0
41230;BME280;26964;50.428;19.218;2023-11-19T00:41:54;1024.0;;;0.6;81.0
41230;BME280;26964;50.428;19.218;2023-11-19T00:42:53;1024.0;;;0.6;81.0
41230;BME280;26964;50.428;19.218;2023-11-19T00:43:54;1024.0;;;0.6;81.0
41230;BME280;26964;50.428;19.218;2023-11-19T00:44:54;1023.9;;;0.6;81.1
41230;BME280;26964;50.428;19.218;2023-11-19T00:45:53;1023.9;;;0.6;81.0
41230;BME280;26964;50.428;19.218;2023-11-19T00:46:53;1024.0;;;0.6;81.0
41230;BME280;26964;50.428;19.218;2023-11-19T00:47:54;1023.8;;;0.6;81.0
41230;BME280;26964;50.428;19.218;2023-11-19T00:48:54;1023.8;;;0.6;81.0
41230;BME280;26964;50.428;19.218;2023-11-19T00:49:54;1023.9;;;0.6;81.0
41230;BME280;26964;50.428;19.218;2023-11-19T00:50:53;1023.8;;;0.6;81.1
41230;BME280;26964;50.428;19.218;2023-11-19T00:51:54;1024.0;;;0.6;81.1
41230;BME280;26964;50.428;19.218;2023-11-19T00:52:53;1024.0;;;0.6;81.1
41230;BME280;26964;50.428;19.218;2023-11-19T00:53:53;1023.9;;;0.6;81.1
41230;BME280;26964;50.428;19.218;2023-11-19T00:54:54;1024.0;;;0.6;81.1
41230;BME280;26964;50.428;19.218;2023-11-19T00:55:54;1023.9;;;0.6;81.0
41230;BME280;26964;50.428;19.218;2023-11-19T00:56:54;1023.9;;;0.6;81.0
41230;BME280;26964;50.428;19.218;2023-11-19T00:57:54;1024.0;;;0.6;81.0
41230;BME280;26964;50.428;19.218;2023-11-19T00:58:53;1023.9;;;0.6;81.0
41230;BME280;26964;50.428;19.218;2023-11-19T00:59:53;1023.9;;;0.6;81.0
41230;BME280;26964;50.428;19.218;2023-11-19T01:00:54;1023.9;;;0.6;81.0
41230;BME280;26964;50.428;19.218;2023-11-19T01:01:54;1023.8;;;0.6;81.1
41230;BME280;26964;50.428;19.218;2023-11-19T01:02:53;1023.9;;;0.6;81.1
41230;BME280;26964;50.428;19.218;2023-11-19T01:03:54;1023.9;;;0.6;81.1
41230;BME280;26964;50.428;19.218;2023-11-19T01:04:53;1023.9;;;0.6;81.0
41230;BME280;26964;50.428;19.218;2023-11-19T01:05:54;1023.8;;;0.6;81.1
41230;BME280;26964;50.428;19.218;2023-11-19T01:06:53;1023.9;;;0.7;81.1
41230;BME280;26964;50.428;19.218;2023-11-19T01:07:53;1023.9;;;0.7;81.1
41230;BME280;26964;50.428;19.218;2023-11-19T01:08:53;1023.8;;;0.7;81.1
41230;BME280;26964;50.428;19.218;2023-11-19T01:09:53;1023.9;;;0.7;81.1
41230;BME280;26964;50.428;19.218;2023-11-19T01:10:53;1023.8;;;0.7;81.1
41230;BME280;26964;50.428;19.218;2023-11-19T01:11:53;1023.7;;;0.7;81.0
41230;BME280;26964;50.428;19.218;2023-11-19T01:12:53;1023.8;;;0.7;81.0
41230;BME280;26964;50.428;19.218;2023-11-19T01:13:53;1023.8;;;0.7;81.0
41230;BME280;26964;50.428;19.218;2023-11-19T01:14:53;1023.8;;;0.7;80.9
41230;BME280;26964;50.428;19.218;2023-11-19T01:15:53;1023.8;;;0.7;80.9
41230;BME280;26964;50.428;19.218;2023-11-19T01:16:53;1023.7;;;0.7;80.9
41230;BME280;26964;50.428;19.218;2023-11-19T01:17:56;1023.8;;;0.7;80.9
41230;BME280;26964;50.428;19.218;2023-11-19T01:18:53;1023.8;;;0.7;80.9
41230;BME280;26964;50.428;19.218;2023-11-19T01:19:53;1023.8;;;0.7;80.9
41230;BME280;26964;50.428;19.218;2023-11-19T01:20:54;1023.8;;;0.7;80.9
41230;BME280;26964;50.428;19.218;2023-11-19T01:21:53;1023.8;;;0.7;80.9
41230;BME280;26964;50.428;19.218;2023-11-19T01:22:53;1023.7;;;0.7;80.9
41230;BME280;26964;50.428;19.218;2023-11-19T01:23:53;1023.7;;;0.7;80.8
41230;BME280;26964;50.428;19.218;2023-11-19T01:24:53;1023.6;;;0.7;80.9
41230;BME280;26964;50.428;19.218;2023-11-19T01:25:54;1023.6;;;0.7;80.9
41230;BME280;26964;50.428;19.218;2023-11-19T01:26:53;1023.6;;;0.7;80.9
41230;BME280;26964;50.428;19.218;2023-11-19T01:27:53;1023.6;;;0.7;80.9
41230;BME280;26964;50.428;19.218;2023-11-19T01:28:54;1023.6;;;0.7;80.9
41230;BME280;26964;50.428;19.218;2023-11-19T01:29:53;1023.6;;;0.7;80.9
41230;BME280;26964;50.428;19.218;2023-11-19T01:30:54;1023.5;;;0.7;80.8
41230;BME280;26964;50.428;19.218;2023-11-19T01:31:53;1023.5;;;0.6;80.8
41230;BME280;26964;50.428;19.218;2023-11-19T01:32:53;1023.5;;;0.6;80.8
41230;BME280;26964;50.428;19.218;2023-11-19T01:33:54;1023.5;;;0.6;80.8
41230;BME280;26964;50.428;19.218;2023-11-19T01:34:54;1023.5;;;0.6;80.8
41230;BME280;26964;50.428;19.218;2023-11-19T01:35:53;1023.4;;;0.6;80.8
41230;BME280;26964;50.428;19.218;2023-11-19T01:36:54;1023.5;;;0.6;80.8
41230;BME280;26964;50.428;19.218;2023-11-19T01:37:59;1023.5;;;0.6;80.7
41230;BME280;26964;50.428;19.218;2023-11-19T01:38:54;1023.5;;;0.6;80.7
41230;BME280;26964;50.428;19.218;2023-11-19T01:39:54;1023.5;;;0.6;80.7
41230;BME280;26964;50.428;19.218;2023-11-19T01:40:57;1023.5;;;0.6;80.8
41230;BME280;26964;50.428;19.218;2023-11-19T01:41:54;1023.4;;;0.6;80.8
41230;BME280;26964;50.428;19.218;2023-11-19T01:42:54;1023.4;;;0.6;80.8
41230;BME280;26964;50.428;19.218;2023-11-19T01:43:53;1023.4;;;0.6;80.8
41230;BME280;26964;50.428;19.218;2023-11-19T01:45:53;1023.5;;;0.6;80.8
41230;BME280;26964;50.428;19.218;2023-11-19T01:46:58;1023.5;;;0.6;80.8
41230;BME280;26964;50.428;19.218;2023-11-19T01:47:53;1023.4;;;0.6;80.8
41230;BME280;26964;50.428;19.218;2023-11-19T01:48:53;1023.4;;;0.5;80.8
41230;BME280;26964;50.428;19.218;2023-11-19T01:49:54;1023.4;;;0.5;80.8
41230;BME280;26964;50.428;19.218;2023-11-19T01:50:53;1023.3;;;0.5;80.8
41230;BME280;26964;50.428;19.218;2023-11-19T01:51:53;1023.3;;;0.5;80.8
41230;BME280;26964;50.428;19.218;2023-11-19T01:52:54;1023.2;;;0.5;80.9
41230;BME280;26964;50.428;19.218;2023-11-19T01:53:54;1023.2;;;0.5;80.9
41230;BME280;26964;50.428;19.218;2023-11-19T01:54:54;1023.2;;;0.5;80.9
41230;BME280;26964;50.428;19.218;2023-11-19T01:55:53;1023.2;;;0.6;80.9
41230;BME280;26964;50.428;19.218;2023-11-19T01:56:54;1023.2;;;0.6;80.9
41230;BME280;26964;50.428;19.218;2023-11-19T01:57:55;1023.2;;;0.6;80.9
41230;BME280;26964;50.428;19.218;2023-11-19T01:58:54;1023.3;;;0.6;80.9
41230;BME280;26964;50.428;19.218;2023-11-19T01:59:53;1023.1;;;0.6;80.9
41230;BME280;26964;50.428;19.218;2023-11-19T02:00:53;1023.1;;;0.6;80.9
41230;BME280;26964;50.428;19.218;2023-11-19T02:01:53;1023.0;;;0.6;81.0
41230;BME280;26964;50.428;19.218;2023-11-19T02:02:53;1023.1;;;0.6;81.0
41230;BME280;26964;50.428;19.218;2023-11-19T02:04:02;1023.0;;;0.6;81.0
41230;BME280;26964;50.428;19.218;2023-11-19T02:04:53;1023.0;;;0.6;81.0
41230;BME280;26964;50.428;19.218;2023-11-19T02:05:53;1023.1;;;0.6;81.0
41230;BME280;26964;50.428;19.218;2023-11-19T02:06:57;1023.0;;;0.6;81.0
41230;BME280;26964;50.428;19.218;2023-11-19T02:07:53;1022.9;;;0.6;81.0
41230;BME280;26964;50.428;19.218;2023-11-19T02:08:54;1022.9;;;0.6;81.0
41230;BME280;26964;50.428;19.218;2023-11-19T02:09:54;1022.8;;;0.6;81.0
41230;BME280;26964;50.428;19.218;2023-11-19T02:10:54;1022.8;;;0.6;81.0
41230;BME280;26964;50.428;19.218;2023-11-19T02:11:54;1022.6;;;0.6;81.0
41230;BME280;26964;50.428;19.218;2023-11-19T02:12:53;1022.6;;;0.6;81.0
41230;BME280;26964;50.428;19.218;2023-11-19T02:13:54;1022.6;;;0.6;81.0
41230;BME280;26964;50.428;19.218;2023-11-19T02:14:53;1022.5;;;0.6;81.0
41230;BME280;26964;50.428;19.218;2023-11-19T02:15:53;1022.5;;;0.6;81.0
41230;BME280;26964;50.428;19.218;2023-11-19T02:16:53;1022.4;;;0.6;81.0
41230;BME280;26964;50.428;19.218;2023-11-19T02:17:55;1022.3;;;0.6;81.0
41230;BME280;26964;50.428;19.218;2023-11-19T02:18:53;1022.3;;;0.6;81.0
41230;BME280;26964;50.428;19.218;2023-11-19T02:19:53;1022.4;;;0.6;81.0
41230;BME280;26964;50.428;19.218;2023-11-19T02:20:53;1022.4;;;0.6;81.0
41230;BME280;26964;50.428;19.218;2023-11-19T02:21:54;1022.4;;;0.6;81.0
41230;BME280;26964;50.428;19.218;2023-11-19T02:23:00;1022.4;;;0.6;81.0
41230;BME280;26964;50.428;19.218;2023-11-19T02:23:53;1022.4;;;0.6;81.0
41230;BME280;26964;50.428;19.218;2023-11-19T02:24:59;1022.3;;;0.6;81.0
41230;BME280;26964;50.428;19.218;2023-11-19T02:26:59;1022.2;;;0.5;81.0
41230;BME280;26964;50.428;19.218;2023-11-19T02:28:54;1022.1;;;0.5;80.9
41230;BME280;26964;50.428;19.218;2023-11-19T02:29:53;1022.2;;;0.5;81.0
41230;BME280;26964;50.428;19.218;2023-11-19T02:30:53;1022.1;;;0.5;80.9
41230;BME280;26964;50.428;19.218;2023-11-19T02:31:53;1022.1;;;0.5;80.9
41230;BME280;26964;50.428;19.218;2023-11-19T02:32:53;1022.2;;;0.5;80.9
41230;BME280;26964;50.428;19.218;2023-11-19T02:33:54;1022.2;;;0.5;81.0
41230;BME280;26964;50.428;19.218;2023-11-19T02:34:53;1022.2;;;0.5;81.0
41230;BME280;26964;50.428;19.218;2023-11-19T02:35:53;1022.2;;;0.5;81.0
41230;BME280;26964;50.428;19.218;2023-11-19T02:36:54;1022.2;;;0.5;81.0
41230;BME280;26964;50.428;19.218;2023-11-19T02:37:54;1022.2;;;0.5;81.0
41230;BME280;26964;50.428;19.218;2023-11-19T02:38:53;1022.2;;;0.5;81.0
41230;BME280;26964;50.428;19.218;2023-11-19T02:39:53;1022.1;;;0.5;81.0
41230;BME280;26964;50.428;19.218;2023-11-19T02:40:54;1022.0;;;0.5;81.0
41230;BME280;26964;50.428;19.218;2023-11-19T02:41:53;1022.0;;;0.5;81.0
41230;BME280;26964;50.428;19.218;2023-11-19T02:42:53;1022.0;;;0.5;81.0
41230;BME280;26964;50.428;19.218;2023-11-19T02:43:54;1022.0;;;0.5;80.9
41230;BME280;26964;50.428;19.218;2023-11-19T02:44:54;1021.9;;;0.5;81.0
41230;BME280;26964;50.428;19.218;2023-11-19T02:45:53;1021.9;;;0.5;81.0
41230;BME280;26964;50.428;19.218;2023-11-19T02:47:08;1021.9;;;0.5;81.0
41230;BME280;26964;50.428;19.218;2023-11-19T02:47:53;1021.8;;;0.5;81.0
41230;BME280;26964;50.428;19.218;2023-11-19T02:48:53;1021.8;;;0.5;81.0
41230;BME280;26964;50.428;19.218;2023-11-19T02:50:03;1021.8;;;0.5;81.0
41230;BME280;26964;50.428;19.218;2023-11-19T02:50:53;1021.8;;;0.5;81.0
41230;BME280;26964;50.428;19.218;2023-11-19T02:51:53;1021.8;;;0.5;81.0
41230;BME280;26964;50.428;19.218;2023-11-19T02:52:55;1021.7;;;0.5;81.0
41230;BME280;26964;50.428;19.218;2023-11-19T02:53:54;1021.6;;;0.5;81.0
41230;BME280;26964;50.428;19.218;2023-11-19T02:54:53;1021.5;;;0.5;80.9
41230;BME280;26964;50.428;19.218;2023-11-19T02:55:53;1021.6;;;0.5;81.0
41230;BME280;26964;50.428;19.218;2023-11-19T02:56:54;1021.5;;;0.5;80.9
41230;BME280;26964;50.428;19.218;2023-11-19T02:57:53;1021.6;;;0.5;81.0
41230;BME280;26964;50.428;19.218;2023-11-19T02:58:53;1021.5;;;0.5;81.0
41230;BME280;26964;50.428;19.218;2023-11-19T02:59:53;1021.5;;;0.5;80.9
41230;BME280;26964;50.428;19.218;2023-11-19T03:00:53;1021.4;;;0.5;80.9
41230;BME280;26964;50.428;19.218;2023-11-19T03:01:53;1021.4;;;0.4;80.9
41230;BME280;26964;50.428;19.218;2023-11-19T03:02:53;1021.3;;;0.5;80.8
41230;BME280;26964;50.428;19.218;2023-11-19T03:03:54;1021.3;;;0.5;80.8
41230;BME280;26964;50.428;19.218;2023-11-19T03:04:53;1021.3;;;0.5;80.9
41230;BME280;26964;50.428;19.218;2023-11-19T03:05:53;1021.3;;;0.4;80.9
41230;BME280;26964;50.428;19.218;2023-11-19T03:06:54;1021.2;;;0.4;80.9
41230;BME280;26964;50.428;19.218;2023-11-19T03:07:58;1021.3;;;0.4;80.8
41230;BME280;26964;50.428;19.218;2023-11-19T03:08:54;1021.4;;;0.4;80.9
41230;BME280;26964;50.428;19.218;2023-11-19T03:09:54;1021.4;;;0.4;80.8
41230;BME280;26964;50.428;19.218;2023-11-19T03:10:53;1021.4;;;0.4;80.9
41230;BME280;26964;50.428;19.218;2023-11-19T03:11:53;1021.5;;;0.4;80.9
41230;BME280;26964;50.428;19.218;2023-11-19T03:12:54;1021.6;;;0.4;80.9
41230;BME280;26964;50.428;19.218;2023-11-19T03:13:54;1021.5;;;0.4;80.9
41230;BME280;26964;50.428;19.218;2023-11-19T03:14:54;1021.5;;;0.4;80.9
41230;BME280;26964;50.428;19.218;2023-11-19T03:15:53;1021.5;;;0.4;80.9
41230;BME280;26964;50.428;19.218;2023-11-19T03:16:53;1021.5;;;0.4;80.9
41230;BME280;26964;50.428;19.218;2023-11-19T03:17:53;1021.4;;;0.4;80.9
41230;BME280;26964;50.428;19.218;2023-11-19T03:18:54;1021.4;;;0.4;80.9
41230;BME280;26964;50.428;19.218;2023-11-19T03:19:54;1021.4;;;0.4;80.9
41230;BME280;26964;50.428;19.218;2023-11-19T03:20:53;1021.4;;;0.4;80.9
41230;BME280;26964;50.428;19.218;2023-11-19T03:21:53;1021.3;;;0.4;80.9
41230;BME280;26964;50.428;19.218;2023-11-19T03:22:53;1021.4;;;0.4;80.9
41230;BME280;26964;50.428;19.218;2023-11-19T03:23:53;1021.5;;;0.4;80.9
41230;BME280;26964;50.428;19.218;2023-11-19T03:25:11;1021.5;;;0.4;80.9
41230;BME280;26964;50.428;19.218;2023-11-19T03:25:53;1021.5;;;0.4;80.9
41230;BME280;26964;50.428;19.218;2023-11-19T03:26:54;1021.5;;;0.4;80.9
41230;BME280;26964;50.428;19.218;2023-11-19T03:27:53;1021.5;;;0.4;80.9
41230;BME280;26964;50.428;19.218;2023-11-19T03:28:53;1021.4;;;0.4;80.9
41230;BME280;26964;50.428;19.218;2023-11-19T03:29:54;1021.5;;;0.4;80.9
41230;BME280;26964;50.428;19.218;2023-11-19T03:30:59;1021.5;;;0.3;80.9
41230;BME280;26964;50.428;19.218;2023-11-19T03:31:54;1021.5;;;0.4;80.9
41230;BME280;26964;50.428;19.218;2023-11-19T03:32:53;1021.4;;;0.4;80.9
41230;BME280;26964;50.428;19.218;2023-11-19T03:33:53;1021.3;;;0.4;80.9
41230;BME280;26964;50.428;19.218;2023-11-19T03:34:54;1021.3;;;0.4;80.9
41230;BME280;26964;50.428;19.218;2023-11-19T03:35:54;1021.2;;;0.4;81.0
41230;BME280;26964;50.428;19.218;2023-11-19T03:36:54;1021.2;;;0.4;81.0
41230;BME280;26964;50.428;19.218;2023-11-19T03:37:54;1021.2;;;0.4;81.0
41230;BME280;26964;50.428;19.218;2023-11-19T03:38:53;1021.3;;;0.4;81.0
41230;BME280;26964;50.428;19.218;2023-11-19T03:39:53;1021.2;;;0.4;81.0
41230;BME280;26964;50.428;19.218;2023-11-19T03:40:54;1021.2;;;0.4;81.0
41230;BME280;26964;50.428;19.218;2023-11-19T03:41:54;1021.2;;;0.4;81.0
41230;BME280;26964;50.428;19.218;2023-11-19T03:42:53;1021.2;;;0.4;81.0
41230;BME280;26964;50.428;19.218;2023-11-19T03:43:53;1021.2;;;0.4;81.0
41230;BME280;26964;50.428;19.218;2023-11-19T03:44:53;1021.1;;;0.4;81.0
41230;BME280;26964;50.428;19.218;2023-11-19T03:45:53;1021.1;;;0.4;81.0
41230;BME280;26964;50.428;19.218;2023-11-19T03:46:54;1021.0;;;0.4;81.0
41230;BME280;26964;50.428;19.218;2023-11-19T03:47:54;1021.0;;;0.4;81.0
41230;BME280;26964;50.428;19.218;2023-11-19T03:48:53;1020.8;;;0.4;81.0
41230;BME280;26964;50.428;19.218;2023-11-19T03:49:53;1020.8;;;0.5;81.0
41230;BME280;26964;50.428;19.218;2023-11-19T03:50:53;1020.8;;;0.5;81.0
41230;BME280;26964;50.428;19.218;2023-11-19T03:51:54;1020.8;;;0.5;81.0
41230;BME280;26964;50.428;19.218;2023-11-19T03:52:54;1020.8;;;0.5;81.0
41230;BME280;26964;50.428;19.218;2023-11-19T03:53:54;1020.8;;;0.5;81.0
41230;BME280;26964;50.428;19.218;2023-11-19T03:54:53;1020.8;;;0.5;81.0
41230;BME280;26964;50.428;19.218;2023-11-19T03:55:53;1020.9;;;0.5;81.0
41230;BME280;26964;50.428;19.218;2023-11-19T03:56:54;1020.8;;;0.5;81.0
41230;BME280;26964;50.428;19.218;2023-11-19T03:57:54;1020.9;;;0.5;81.0
41230;BME280;26964;50.428;19.218;2023-11-19T03:58:53;1020.9;;;0.5;81.0
41230;BME280;26964;50.428;19.218;2023-11-19T03:59:53;1020.8;;;0.5;81.0
41230;BME280;26964;50.428;19.218;2023-11-19T04:00:53;1020.8;;;0.6;81.0
41230;BME280;26964;50.428;19.218;2023-11-19T04:01:54;1020.7;;;0.6;81.0
41230;BME280;26964;50.428;19.218;2023-11-19T04:03:20;1020.6;;;0.6;81.1
41230;BME280;26964;50.428;19.218;2023-11-19T04:03:53;1020.6;;;0.6;81.0
41230;BME280;26964;50.428;19.218;2023-11-19T04:04:54;1020.5;;;0.6;81.0
41230;BME280;26964;50.428;19.218;2023-11-19T04:05:53;1020.6;;;0.6;81.0
41230;BME280;26964;50.428;19.218;2023-11-19T04:06:53;1020.4;;;0.6;81.0
41230;BME280;26964;50.428;19.218;2023-11-19T04:08:10;1020.5;;;0.6;81.1
41230;BME280;26964;50.428;19.218;2023-11-19T04:08:54;1020.4;;;0.6;81.1
41230;BME280;26964;50.428;19.218;2023-11-19T04:09:54;1020.4;;;0.6;81.0
41230;BME280;26964;50.428;19.218;2023-11-19T04:10:53;1020.3;;;0.6;81.0
41230;BME280;26964;50.428;19.218;2023-11-19T04:11:53;1020.3;;;0.6;81.0
41230;BME280;26964;50.428;19.218;2023-11-19T04:12:54;1020.3;;;0.6;81.0
41230;BME280;26964;50.428;19.218;2023-11-19T04:13:53;1020.3;;;0.6;81.0
41230;BME280;26964;50.428;19.218;2023-11-19T04:14:53;1020.4;;;0.6;81.0
41230;BME280;26964;50.428;19.218;2023-11-19T04:15:53;1020.4;;;0.6;81.0
41230;BME280;26964;50.428;19.218;2023-11-19T04:16:54;1020.4;;;0.6;80.9
41230;BME280;26964;50.428;19.218;2023-11-19T04:17:54;1020.4;;;0.6;80.9
41230;BME280;26964;50.428;19.218;2023-11-19T04:18:53;1020.4;;;0.6;80.8
41230;BME280;26964;50.428;19.218;2023-11-19T04:19:53;1020.4;;;0.6;80.8
41230;BME280;26964;50.428;19.218;2023-11-19T04:20:53;1020.4;;;0.6;80.8
41230;BME280;26964;50.428;19.218;2023-11-19T04:21:53;1020.4;;;0.5;80.8
41230;BME280;26964;50.428;19.218;2023-11-19T04:22:54;1020.4;;;0.5;80.8
41230;BME280;26964;50.428;19.218;2023-11-19T04:23:53;1020.4;;;0.5;80.8
41230;BME280;26964;50.428;19.218;2023-11-19T04:24:53;1020.4;;;0.5;80.8
41230;BME280;26964;50.428;19.218;2023-11-19T04:25:53;1020.2;;;0.5;80.8
41230;BME280;26964;50.428;19.218;2023-11-19T04:26:53;1020.3;;;0.5;80.9
41230;BME280;26964;50.428;19.218;2023-11-19T04:27:53;1020.2;;;0.5;80.9
41230;BME280;26964;50.428;19.218;2023-11-19T04:28:53;1020.2;;;0.5;80.9
41230;BME280;26964;50.428;19.218;2023-11-19T04:29:54;1020.2;;;0.5;80.9
41230;BME280;26964;50.428;19.218;2023-11-19T04:30:53;1020.1;;;0.5;80.8
41230;BME280;26964;50.428;19.218;2023-11-19T04:31:53;1020.1;;;0.5;80.8
41230;BME280;26964;50.428;19.218;2023-11-19T04:32:53;1020.1;;;0.5;80.8
41230;BME280;26964;50.428;19.218;2023-11-19T04:33:54;1020.2;;;0.5;80.8
41230;BME280;26964;50.428;19.218;2023-11-19T04:34:53;1020.3;;;0.5;80.7
41230;BME280;26964;50.428;19.218;2023-11-19T04:35:53;1020.2;;;0.5;80.7
41230;BME280;26964;50.428;19.218;2023-11-19T04:36:53;1020.2;;;0.5;80.7
41230;BME280;26964;50.428;19.218;2023-11-19T04:37:53;1020.2;;;0.4;80.7
41230;BME280;26964;50.428;19.218;2023-11-19T04:40:55;1020.1;;;0.4;80.7
41230;BME280;26964;50.428;19.218;2023-11-19T04:41:53;1020.1;;;0.4;80.7
41230;BME280;26964;50.428;19.218;2023-11-19T04:42:53;1020.1;;;0.4;80.7
41230;BME280;26964;50.428;19.218;2023-11-19T04:43:53;1020.0;;;0.4;80.7
41230;BME280;26964;50.428;19.218;2023-11-19T04:44:54;1020.0;;;0.4;80.7
41230;BME280;26964;50.428;19.218;2023-11-19T04:45:54;1020.0;;;0.4;80.7
41230;BME280;26964;50.428;19.218;2023-11-19T04:46:54;1020.1;;;0.4;80.7
41230;BME280;26964;50.428;19.218;2023-11-19T04:47:54;1020.1;;;0.4;80.7
41230;BME280;26964;50.428;19.218;2023-11-19T04:48:54;1020.2;;;0.4;80.7
41230;BME280;26964;50.428;19.218;2023-11-19T04:50:07;1020.1;;;0.4;80.7
41230;BME280;26964;50.428;19.218;2023-11-19T04:50:54;1020.1;;;0.4;80.6
41230;BME280;26964;50.428;19.218;2023-11-19T04:51:53;1020.0;;;0.3;80.6
41230;BME280;26964;50.428;19.218;2023-11-19T04:52:53;1020.0;;;0.3;80.6
41230;BME280;26964;50.428;19.218;2023-11-19T04:53:53;1020.0;;;0.3;80.6
41230;BME280;26964;50.428;19.218;2023-11-19T04:54:53;1020.0;;;0.3;80.5
41230;BME280;26964;50.428;19.218;2023-11-19T04:55:53;1020.1;;;0.3;80.6
41230;BME280;26964;50.428;19.218;2023-11-19T04:56:54;1020.0;;;0.3;80.5
41230;BME280;26964;50.428;19.218;2023-11-19T04:57:54;1020.0;;;0.2;80.5
41230;BME280;26964;50.428;19.218;2023-11-19T04:58:54;1020.0;;;0.2;80.5
41230;BME280;26964;50.428;19.218;2023-11-19T04:59:54;1019.9;;;0.2;80.5
41230;BME280;26964;50.428;19.218;2023-11-19T05:00:53;1020.0;;;0.2;80.5
41230;BME280;26964;50.428;19.218;2023-11-19T05:01:54;1020.0;;;0.2;80.5
41230;BME280;26964;50.428;19.218;2023-11-19T05:02:53;1019.9;;;0.2;80.5
41230;BME280;26964;50.428;19.218;2023-11-19T05:03:53;1020.0;;;0.2;80.5
41230;BME280;26964;50.428;19.218;2023-11-19T05:04:54;1020.0;;;0.2;80.6
41230;BME280;26964;50.428;19.218;2023-11-19T05:05:53;1020.0;;;0.1;80.6
41230;BME280;26964;50.428;19.218;2023-11-19T05:07:07;1019.9;;;0.1;80.5
41230;BME280;26964;50.428;19.218;2023-11-19T05:08:45;1019.9;;;0.1;80.6
41230;BME280;26964;50.428;19.218;2023-11-19T05:08:55;1019.9;;;0.1;80.6
41230;BME280;26964;50.428;19.218;2023-11-19T05:10:18;1019.8;;;0.1;80.6
41230;BME280;26964;50.428;19.218;2023-11-19T05:10:54;1019.9;;;0.1;80.7
41230;BME280;26964;50.428;19.218;2023-11-19T05:11:53;1019.9;;;0.1;80.7
41230;BME280;26964;50.428;19.218;2023-11-19T05:12:53;1019.9;;;0.1;80.8
41230;BME280;26964;50.428;19.218;2023-11-19T05:13:54;1019.9;;;0.1;80.8
41230;BME280;26964;50.428;19.218;2023-11-19T05:14:53;1019.8;;;0.1;80.8
41230;BME280;26964;50.428;19.218;2023-11-19T05:15:54;1019.9;;;0.1;80.8
41230;BME280;26964;50.428;19.218;2023-11-19T05:16:54;1019.9;;;0.1;80.8
41230;BME280;26964;50.428;19.218;2023-11-19T05:18:07;1019.8;;;0.1;80.8
41230;BME280;26964;50.428;19.218;2023-11-19T05:18:53;1019.9;;;0.1;80.8
41230;BME280;26964;50.428;19.218;2023-11-19T05:19:53;1019.8;;;0.1;80.8
41230;BME280;26964;50.428;19.218;2023-11-19T05:20:53;1019.7;;;0.1;80.8
41230;BME280;26964;50.428;19.218;2023-11-19T05:21:53;1019.7;;;0.1;80.8
41230;BME280;26964;50.428;19.218;2023-11-19T05:22:53;1019.7;;;0.1;80.8
41230;BME280;26964;50.428;19.218;2023-11-19T05:23:54;1019.7;;;0.1;80.8
41230;BME280;26964;50.428;19.218;2023-11-19T05:24:53;1019.6;;;0.1;80.8
41230;BME280;26964;50.428;19.218;2023-11-19T05:25:53;1019.6;;;0.1;80.8
41230;BME280;26964;50.428;19.218;2023-11-19T05:26:53;1019.6;;;0.1;80.8
41230;BME280;26964;50.428;19.218;2023-11-19T05:28:53;1019.4;;;0.1;80.8
41230;BME280;26964;50.428;19.218;2023-11-19T05:29:53;1019.4;;;0.1;80.8
41230;BME280;26964;50.428;19.218;2023-11-19T05:30:54;1019.4;;;0.1;80.8
41230;BME280;26964;50.428;19.218;2023-11-19T05:31:54;1019.5;;;0.1;80.8
41230;BME280;26964;50.428;19.218;2023-11-19T05:32:54;1019.3;;;0.1;80.8
41230;BME280;26964;50.428;19.218;2023-11-19T05:33:53;1019.3;;;0.1;80.8
41230;BME280;26964;50.428;19.218;2023-11-19T05:34:54;1019.3;;;0.1;80.8
41230;BME280;26964;50.428;19.218;2023-11-19T05:35:54;1019.2;;;0.1;80.8
41230;BME280;26964;50.428;19.218;2023-11-19T05:36:54;1019.2;;;0.1;80.8
41230;BME280;26964;50.428;19.218;2023-11-19T05:37:53;1019.1;;;0.1;80.8
41230;BME280;26964;50.428;19.218;2023-11-19T05:38:54;1019.0;;;0.1;80.8
41230;BME280;26964;50.428;19.218;2023-11-19T05:39:54;1019.1;;;0.1;80.8
41230;BME280;26964;50.428;19.218;2023-11-19T05:40:54;1019.1;;;0.1;80.8
41230;BME280;26964;50.428;19.218;2023-11-19T05:41:54;1019.2;;;0.1;80.8